This is the latest recevied weather packets stored in our database for station/object K0CPM-2. If no packets are shown the sender has not sent any weather packets the latest 10 day(s).
| Time | Temp. | Humidity | Pressure | Rain* | Wind** | Luminosity | Snow |
|---|---|---|---|---|---|---|---|
| 1777831215 | 25° C | 35% | 1018.9 hPa | 0 mm | - | - | - |
| 1777830307 | 25° C | 34% | 1019.2 hPa | 0 mm | - | - | - |
| 1777829406 | 25.56° C | 34% | 1019.6 hPa | 0 mm | - | - | - |
| 1777828505 | 25° C | 34% | 1019.8 hPa | 0 mm | - | - | - |
| 1777827607 | 24.44° C | 36% | 1020 hPa | 0 mm | - | - | - |
| 1777826701 | 24.44° C | 32% | 1020.1 hPa | 0 mm | - | - | - |
| 1777825860 | 24.44° C | 33% | 1020.1 hPa | 0 mm | - | - | - |
| 1777824960 | 24.44° C | 32% | 1020.1 hPa | 0 mm | - | - | - |
| 1777824060 | 25° C | 34% | 1020.1 hPa | 0 mm | - | - | - |
| 1777823158 | 24.44° C | 36% | 1020 hPa | 0 mm | - | - | - |
| 1777822254 | 23.89° C | 36% | 1019.9 hPa | 0 mm | - | - | - |
| 1777821361 | 23.89° C | 36% | 1019.9 hPa | 0 mm | - | - | - |
| 1777820454 | 23.89° C | 36% | 1019.9 hPa | 0 mm | - | - | - |
| 1777819551 | 23.89° C | 38% | 1019.8 hPa | 0 mm | - | - | - |
| 1777818650 | 23.89° C | 43% | 1019.7 hPa | 0 mm | - | - | - |
| 1777817777 | 23.33° C | 45% | 1019.6 hPa | 0 mm | - | - | - |
| 1777816843 | 22.78° C | 48% | 1019.5 hPa | 0 mm | - | - | - |
| 1777815949 | 22.22° C | 57% | 1019.2 hPa | 0 mm | - | - | - |
| 1777815040 | 22.22° C | 58% | 1019.1 hPa | 0 mm | - | - | - |
| 1777814139 | 21.67° C | 61% | 1019.1 hPa | 0 mm | - | - | - |
| 1777813234 | 20.56° C | 66% | 1019 hPa | 0 mm | - | - | - |
| 1777812331 | 18.33° C | 70% | 1018.8 hPa | 0 mm | - | - | - |
| 1777811428 | 15.56° C | 83% | 1018.6 hPa | 0 mm | - | - | - |
| 1777810531 | 13.33° C | 93% | 1018.3 hPa | 0 mm | - | - | - |
| 1777809624 | 11.11° C | 93% | 1018.3 hPa | 0 mm | - | - | - |
* Rain latest hour (hover to see other rain measurements)
** Current wind speed in m/s (hover to see current wind gust speed)